Time;durP1;ratioP1;P1;durP2;ratioP2;P2;SDS_P1;SDS_P2;PMS_P1;PMS_P2;Temp;Humidity;BMP_temperature;BMP_pressure;BME280_temperature;BME280_humidity;BME280_pressure;Samples;Min_cycle;Max_cycle;Signal;HPM_P1;HPM_P2
2021/09/18 00:00:07;;;;;;;2.00;1.13;;;;;;;;;;5099394;28;20463;-71
2021/09/18 00:02:35;;;;;;;1.50;1.00;;;;;;;;;;5099307;28;20537;-71
2021/09/18 00:05:03;;;;;;;1.60;1.00;;;;;;;;;;5099432;28;20456;-71
2021/09/18 00:07:32;;;;;;;3.63;1.20;;;;;;;;;;5099208;28;20774;-71
2021/09/18 00:09:59;;;;;;;1.63;1.23;;;;;;;;;;5079372;28;20452;-70
2021/09/18 00:12:27;;;;;;;1.50;0.90;;;;;;;;;;5079334;28;20467;-71
2021/09/18 00:15:01;;;;;;;1.90;1.00;;;;;;;;;;5080310;28;20561;-71
2021/09/18 00:17:29;;;;;;;3.20;1.40;;;;;;;;;;5095556;28;20521;-72
2021/09/18 00:19:58;;;;;;;2.50;1.33;;;;;;;;;;5099784;28;20471;-71
2021/09/18 00:22:26;;;;;;;2.17;0.90;;;;;;;;;;5099613;28;20463;-71
2021/09/18 00:24:56;;;;;;;2.17;1.30;;;;;;;;;;5099760;28;20459;-71
2021/09/18 00:27:27;;;;;;;2.67;1.30;;;;;;;;;;5087504;28;20453;-71
2021/09/18 00:29:55;;;;;;;2.63;1.37;;;;;;;;;;5094354;28;20460;-71
2021/09/18 00:32:26;;;;;;;5.17;1.33;;;;;;;;;;5098800;28;20470;-71
2021/09/18 00:34:56;;;;;;;2.07;1.30;;;;;;;;;;5094629;28;20512;-71
2021/09/18 00:37:28;;;;;;;2.60;1.20;;;;;;;;;;5098387;28;20480;-71
2021/09/18 00:39:56;;;;;;;3.60;1.30;;;;;;;;;;5098466;28;21209;-70
2021/09/18 00:42:23;;;;;;;2.60;1.10;;;;;;;;;;5083864;28;20464;-72
2021/09/18 00:44:52;;;;;;;1.87;0.97;;;;;;;;;;5090159;28;20447;-71
2021/09/18 00:47:20;;;;;;;1.70;1.13;;;;;;;;;;5098509;28;20560;-71
2021/09/18 00:49:49;;;;;;;1.90;0.90;;;;;;;;;;5097686;28;20444;-71
2021/09/18 00:52:19;;;;;;;2.70;1.20;;;;;;;;;;5098423;28;20731;-71
2021/09/18 00:54:47;;;;;;;1.97;1.13;;;;;;;;;;5099351;28;20456;-71
2021/09/18 00:57:15;;;;;;;2.00;1.07;;;;;;;;;;5098369;28;20484;-71
2021/09/18 00:59:43;;;;;;;6.00;1.60;;;;;;;;;;5090639;28;20460;-71
2021/09/18 01:02:15;;;;;;;2.10;1.10;;;;;;;;;;5098702;28;20470;-72
2021/09/18 01:04:45;;;;;;;3.73;0.90;;;;;;;;;;5098222;28;20456;-71
2021/09/18 01:07:16;;;;;;;3.10;1.40;;;;;;;;;;5098303;28;20456;-71
2021/09/18 01:09:44;;;;;;;1.93;1.07;;;;;;;;;;5082517;28;20853;-72
2021/09/18 01:12:12;;;;;;;2.17;1.30;;;;;;;;;;5098858;28;20459;-71
2021/09/18 01:14:45;;;;;;;2.00;1.13;;;;;;;;;;5098405;28;20456;-70
2021/09/18 01:17:13;;;;;;;2.13;1.00;;;;;;;;;;5092678;28;20555;-71
2021/09/18 01:19:41;;;;;;;5.10;1.67;;;;;;;;;;5083479;28;20448;-71
2021/09/18 01:22:09;;;;;;;3.90;1.07;;;;;;;;;;5098167;28;20463;-71
2021/09/18 01:24:40;;;;;;;3.13;1.50;;;;;;;;;;5098115;28;20878;-71
2021/09/18 01:27:09;;;;;;;1.80;1.20;;;;;;;;;;5098227;28;20516;-71
2021/09/18 01:29:37;;;;;;;3.00;1.43;;;;;;;;;;5098044;28;20513;-72
2021/09/18 01:32:05;;;;;;;3.10;1.73;;;;;;;;;;5097886;28;20463;-71
2021/09/18 01:34:33;;;;;;;5.13;3.10;;;;;;;;;;5097780;28;20448;-71
2021/09/18 01:37:01;;;;;;;4.50;1.80;;;;;;;;;;5097393;28;20788;-71
2021/09/18 01:39:29;;;;;;;5.53;1.43;;;;;;;;;;5097866;28;20459;-71
2021/09/18 01:41:58;;;;;;;4.00;1.30;;;;;;;;;;5097411;28;20455;-71
2021/09/18 01:44:27;;;;;;;2.70;1.30;;;;;;;;;;5098022;28;20451;-71
2021/09/18 01:46:55;;;;;;;4.50;1.00;;;;;;;;;;5097241;28;20547;-71
2021/09/18 01:49:23;;;;;;;2.30;1.03;;;;;;;;;;5097696;28;20717;-71
2021/09/18 01:51:57;;;;;;;2.10;1.43;;;;;;;;;;5097240;28;20462;-71
2021/09/18 01:54:28;;;;;;;2.50;1.83;;;;;;;;;;5095429;28;20462;-71
2021/09/18 01:56:56;;;;;;;3.10;1.80;;;;;;;;;;5096193;28;20483;-71
2021/09/18 01:59:25;;;;;;;3.87;1.97;;;;;;;;;;5097914;28;20460;-71
2021/09/18 02:01:53;;;;;;;4.80;1.67;;;;;;;;;;5097148;28;20446;-71
2021/09/18 02:04:21;;;;;;;2.80;2.13;;;;;;;;;;5096709;28;20535;-71
2021/09/18 02:06:49;;;;;;;2.70;2.10;;;;;;;;;;5096826;28;20452;-71
2021/09/18 02:09:17;;;;;;;2.90;2.10;;;;;;;;;;5097069;28;20460;-71
2021/09/18 02:11:45;;;;;;;4.97;2.30;;;;;;;;;;5096785;28;20501;-70
2021/09/18 02:14:13;;;;;;;2.97;1.70;;;;;;;;;;5096861;28;20444;-71
2021/09/18 02:16:42;;;;;;;2.20;1.50;;;;;;;;;;5085029;28;20452;-70
2021/09/18 02:19:10;;;;;;;3.67;2.33;;;;;;;;;;5097779;28;20459;-70
2021/09/18 02:21:38;;;;;;;4.13;2.17;;;;;;;;;;5097543;28;20487;-71
2021/09/18 02:24:06;;;;;;;2.63;1.80;;;;;;;;;;5097659;28;20459;-71
2021/09/18 02:26:34;;;;;;;4.83;2.30;;;;;;;;;;5096274;28;20443;-71
2021/09/18 02:29:02;;;;;;;3.60;2.30;;;;;;;;;;5097345;28;20458;-71
2021/09/18 02:31:30;;;;;;;4.23;2.50;;;;;;;;;;5096377;28;20452;-71
2021/09/18 02:34:00;;;;;;;3.10;2.27;;;;;;;;;;5097142;28;20489;-70
2021/09/18 02:36:28;;;;;;;2.93;2.43;;;;;;;;;;5096843;28;20456;-72
2021/09/18 02:38:56;;;;;;;8.63;2.60;;;;;;;;;;5097153;28;20837;-72
2021/09/18 02:41:24;;;;;;;4.97;2.50;;;;;;;;;;5096974;28;20444;-72
2021/09/18 02:43:52;;;;;;;3.03;2.00;;;;;;;;;;5096909;28;20886;-70
2021/09/18 02:46:24;;;;;;;4.07;2.17;;;;;;;;;;5097077;28;20460;-72
2021/09/18 02:48:52;;;;;;;3.40;2.43;;;;;;;;;;5097217;28;20452;-71
2021/09/18 02:51:22;;;;;;;4.33;2.67;;;;;;;;;;5096274;28;20871;-71
2021/09/18 02:53:50;;;;;;;4.63;2.47;;;;;;;;;;5096506;28;20944;-72
2021/09/18 02:56:18;;;;;;;3.60;1.93;;;;;;;;;;5097011;28;20456;-72
2021/09/18 02:58:46;;;;;;;4.07;2.23;;;;;;;;;;5096159;28;20938;-71
2021/09/18 03:01:14;;;;;;;4.20;2.00;;;;;;;;;;5096680;28;20507;-71
2021/09/18 03:03:42;;;;;;;2.83;2.43;;;;;;;;;;5097214;28;20475;-71
2021/09/18 03:06:10;;;;;;;3.30;2.27;;;;;;;;;;5096582;28;20723;-72
2021/09/18 03:08:39;;;;;;;6.53;2.50;;;;;;;;;;5096480;28;20563;-72
2021/09/18 03:11:07;;;;;;;5.70;3.00;;;;;;;;;;5096862;28;20455;-73
2021/09/18 03:13:38;;;;;;;4.97;3.40;;;;;;;;;;5096616;28;20471;-72
2021/09/18 03:16:09;;;;;;;4.13;3.43;;;;;;;;;;5096421;28;20450;-71
2021/09/18 03:18:37;;;;;;;5.00;3.50;;;;;;;;;;5096586;28;20486;-71
2021/09/18 03:21:05;;;;;;;5.30;3.70;;;;;;;;;;5096658;28;20847;-71
2021/09/18 03:23:33;;;;;;;4.50;2.90;;;;;;;;;;5096603;28;20497;-71
2021/09/18 03:26:03;;;;;;;6.00;4.27;;;;;;;;;;5095547;28;20448;-71
2021/09/18 03:28:30;;;;;;;8.57;5.53;;;;;;;;;;5096716;28;20562;-71
2021/09/18 03:30:59;;;;;;;7.10;6.03;;;;;;;;;;5096330;28;20545;-71
2021/09/18 03:33:27;;;;;;;6.63;5.30;;;;;;;;;;5095632;28;20467;-72
2021/09/18 03:35:55;;;;;;;8.10;5.53;;;;;;;;;;5088208;28;20521;-71
2021/09/18 03:38:23;;;;;;;7.67;5.60;;;;;;;;;;5095715;28;20490;-72
2021/09/18 03:40:51;;;;;;;7.63;5.73;;;;;;;;;;5094200;28;20463;-71
2021/09/18 03:43:20;;;;;;;11.27;5.97;;;;;;;;;;5096536;28;20544;-72
2021/09/18 03:45:48;;;;;;;10.87;7.30;;;;;;;;;;5097007;28;20470;-72
2021/09/18 03:48:16;;;;;;;11.03;7.07;;;;;;;;;;5096523;28;20460;-72
2021/09/18 03:50:44;;;;;;;10.83;8.30;;;;;;;;;;5096869;28;20895;-72
2021/09/18 03:53:13;;;;;;;9.50;7.80;;;;;;;;;;5095977;28;20482;-72
2021/09/18 03:55:41;;;;;;;11.33;6.70;;;;;;;;;;5096037;28;20459;-73
2021/09/18 03:58:09;;;;;;;12.10;7.70;;;;;;;;;;5095620;28;20912;-73
2021/09/18 04:00:42;;;;;;;11.13;7.60;;;;;;;;;;5094565;28;20507;-72
2021/09/18 04:03:11;;;;;;;10.60;8.30;;;;;;;;;;5096241;28;20797;-72
2021/09/18 04:05:39;;;;;;;12.57;8.07;;;;;;;;;;5095778;28;20444;-73
2021/09/18 04:08:07;;;;;;;14.27;8.30;;;;;;;;;;5095976;28;20456;-72
2021/09/18 04:10:41;;;;;;;15.70;8.40;;;;;;;;;;5098786;28;20538;-72
2021/09/18 04:13:09;;;;;;;9.37;7.43;;;;;;;;;;5092183;28;20864;-72
2021/09/18 04:15:37;;;;;;;12.17;7.63;;;;;;;;;;5099650;28;20466;-72
2021/09/18 04:18:06;;;;;;;14.50;9.00;;;;;;;;;;5099493;28;20486;-72
2021/09/18 04:20:34;;;;;;;12.00;9.13;;;;;;;;;;5099993;28;20852;-72
2021/09/18 04:23:05;;;;;;;14.30;8.63;;;;;;;;;;5099458;28;20459;-72
2021/09/18 04:25:34;;;;;;;10.07;8.10;;;;;;;;;;5099492;28;20503;-72
2021/09/18 04:28:02;;;;;;;13.23;9.07;;;;;;;;;;5080646;28;20474;-72
2021/09/18 04:30:30;;;;;;;13.50;8.60;;;;;;;;;;5080595;28;20734;-73
2021/09/18 04:32:58;;;;;;;10.40;7.70;;;;;;;;;;5079009;28;20468;-72
2021/09/18 04:35:27;;;;;;;11.90;8.87;;;;;;;;;;5079718;28;20452;-72
2021/09/18 04:37:56;;;;;;;10.10;7.53;;;;;;;;;;5089748;28;20483;-73
2021/09/18 04:40:24;;;;;;;10.87;7.50;;;;;;;;;;5099438;28;20483;-72
2021/09/18 04:42:52;;;;;;;11.10;8.00;;;;;;;;;;5098292;28;20491;-72
2021/09/18 04:45:20;;;;;;;9.73;7.50;;;;;;;;;;5099249;28;20456;-72
2021/09/18 04:47:48;;;;;;;8.83;7.40;;;;;;;;;;5099386;28;20856;-72
2021/09/18 04:50:16;;;;;;;11.03;7.50;;;;;;;;;;5098529;28;20455;-71
2021/09/18 04:52:45;;;;;;;13.97;8.70;;;;;;;;;;5099777;28;20467;-72
2021/09/18 04:55:13;;;;;;;9.30;8.17;;;;;;;;;;5098725;28;20519;-72
2021/09/18 04:57:41;;;;;;;10.93;7.67;;;;;;;;;;5098866;28;20855;-71
2021/09/18 05:00:10;;;;;;;11.30;8.00;;;;;;;;;;5098950;28;20844;-72
2021/09/18 05:02:40;;;;;;;9.20;6.50;;;;;;;;;;5098490;28;21326;-72
2021/09/18 05:05:10;;;;;;;10.70;8.00;;;;;;;;;;5089971;28;20784;-72
2021/09/18 05:07:40;;;;;;;12.07;8.60;;;;;;;;;;5098053;28;20466;-72
2021/09/18 05:10:12;;;;;;;10.33;7.83;;;;;;;;;;5097775;28;20452;-72
2021/09/18 05:12:40;;;;;;;10.33;7.60;;;;;;;;;;5098013;28;20840;-72
2021/09/18 05:15:09;;;;;;;11.97;8.07;;;;;;;;;;5089473;28;20863;-72
2021/09/18 05:17:37;;;;;;;9.97;8.03;;;;;;;;;;5100853;27;20497;-73
2021/09/18 05:20:05;;;;;;;15.63;7.47;;;;;;;;;;5102993;28;20883;-71
2021/09/18 05:22:33;;;;;;;9.50;7.33;;;;;;;;;;5097583;28;20550;-71
2021/09/18 05:25:01;;;;;;;9.53;6.80;;;;;;;;;;5098511;28;20459;-72
2021/09/18 05:30:13;;;;;;;9.80;6.90;;;;;;;;;;5096113;28;20477;-71
2021/09/18 05:32:41;;;;;;;10.03;7.50;;;;;;;;;;5099595;28;20456;-73
2021/09/18 05:35:10;;;;;;;10.43;7.80;;;;;;;;;;5099189;28;20452;-72
2021/09/18 05:37:38;;;;;;;8.03;5.73;;;;;;;;;;5099973;28;20796;-72
2021/09/18 05:40:10;;;;;;;9.23;7.00;;;;;;;;;;5089827;28;21006;-72
2021/09/18 05:42:39;;;;;;;10.90;7.20;;;;;;;;;;5084930;28;20463;-72
2021/09/18 05:45:08;;;;;;;9.70;6.90;;;;;;;;;;5099352;28;20463;-71
2021/09/18 05:47:37;;;;;;;8.27;6.13;;;;;;;;;;5098518;28;20779;-71
2021/09/18 05:50:06;;;;;;;9.70;7.53;;;;;;;;;;5098224;28;20444;-71
2021/09/18 05:52:34;;;;;;;9.10;6.90;;;;;;;;;;5097164;28;20455;-72
2021/09/18 05:55:02;;;;;;;12.13;6.73;;;;;;;;;;5097184;28;20460;-71
2021/09/18 05:57:30;;;;;;;8.33;7.03;;;;;;;;;;5096954;28;20552;-72
2021/09/18 06:00:00;;;;;;;8.67;6.57;;;;;;;;;;5098012;28;20527;-71
2021/09/18 06:02:28;;;;;;;9.40;7.30;;;;;;;;;;5096789;28;20451;-72
2021/09/18 06:04:59;;;;;;;10.70;6.83;;;;;;;;;;5097370;28;20458;-72
2021/09/18 06:07:30;;;;;;;10.53;7.10;;;;;;;;;;5098211;28;20534;-72
2021/09/18 06:10:01;;;;;;;11.50;7.53;;;;;;;;;;5097658;28;20883;-72
2021/09/18 06:12:30;;;;;;;10.40;7.37;;;;;;;;;;5097130;28;20462;-72
2021/09/18 06:15:00;;;;;;;9.60;6.70;;;;;;;;;;5097142;28;20452;-72
2021/09/18 06:17:28;;;;;;;11.37;7.10;;;;;;;;;;5097883;28;20455;-72
2021/09/18 06:19:57;;;;;;;12.60;8.40;;;;;;;;;;5096361;28;20503;-72
2021/09/18 06:22:29;;;;;;;9.80;7.67;;;;;;;;;;5092983;28;20492;-72
2021/09/18 06:25:02;;;;;;;13.40;7.10;;;;;;;;;;5097156;28;20521;-72
2021/09/18 06:27:31;;;;;;;10.20;8.13;;;;;;;;;;5096709;28;20713;-72
2021/09/18 06:30:03;;;;;;;16.20;8.53;;;;;;;;;;5096593;28;20463;-73
2021/09/18 06:32:32;;;;;;;10.40;7.13;;;;;;;;;;5090974;28;20467;-71
2021/09/18 06:35:05;;;;;;;9.20;7.10;;;;;;;;;;5095829;28;20493;-71
2021/09/18 06:37:43;;;;;;;13.23;7.53;;;;;;;;;;5091515;28;20852;-70
2021/09/18 06:40:12;;;;;;;9.73;7.40;;;;;;;;;;5090933;28;20783;-71
2021/09/18 06:42:42;;;;;;;10.80;7.77;;;;;;;;;;5071266;28;20455;-72
2021/09/18 06:45:18;;;;;;;10.13;7.33;;;;;;;;;;5090392;28;20856;-71
2021/09/18 06:47:48;;;;;;;9.47;6.60;;;;;;;;;;5095953;28;20479;-72
2021/09/18 06:50:20;;;;;;;12.20;6.83;;;;;;;;;;5096499;28;20451;-72
2021/09/18 06:55:51;;;;;;;8.60;5.87;;;;;;;;;;5053587;28;20458;-72
2021/09/18 06:58:22;;;;;;;9.30;6.53;;;;;;;;;;5086772;28;20455;-72
2021/09/18 07:01:03;;;;;;;9.70;7.53;;;;;;;;;;5095838;28;20509;-72
2021/09/18 07:03:31;;;;;;;7.50;5.33;;;;;;;;;;5096094;28;20444;-72
2021/09/18 07:06:00;;;;;;;10.50;6.87;;;;;;;;;;5095630;28;20463;-72
2021/09/18 07:08:28;;;;;;;8.67;6.20;;;;;;;;;;5096430;28;20830;-72
2021/09/18 07:10:59;;;;;;;8.47;5.73;;;;;;;;;;5096060;28;20455;-72
2021/09/18 07:13:39;;;;;;;7.47;5.83;;;;;;;;;;5095337;28;20461;-72
2021/09/18 07:16:10;;;;;;;7.43;5.47;;;;;;;;;;5095453;28;20479;-72
2021/09/18 07:18:41;;;;;;;8.40;5.70;;;;;;;;;;5095201;28;20487;-72
2021/09/18 07:21:17;;;;;;;7.03;4.77;;;;;;;;;;5095917;28;20755;-72
2021/09/18 07:23:47;;;;;;;6.20;4.50;;;;;;;;;;5095690;28;20444;-73
2021/09/18 07:26:40;;;;;;;7.20;5.50;;;;;;;;;;5096477;28;21066;-71
2021/09/18 07:29:08;;;;;;;6.53;4.40;;;;;;;;;;5081994;28;20465;-73
2021/09/18 07:31:38;;;;;;;7.33;5.33;;;;;;;;;;5075694;28;20463;-73
2021/09/18 07:34:13;;;;;;;5.77;4.93;;;;;;;;;;5084309;28;20558;-73
2021/09/18 07:36:41;;;;;;;6.53;4.93;;;;;;;;;;5092830;28;20565;-73
2021/09/18 07:39:10;;;;;;;4.33;3.47;;;;;;;;;;5094904;28;20487;-72
2021/09/18 07:41:51;;;;;;;4.30;3.70;;;;;;;;;;5094121;28;20973;-72
2021/09/18 07:44:28;;;;;;;5.33;3.20;;;;;;;;;;5076513;28;20464;-74
2021/09/18 07:46:58;;;;;;;8.90;3.37;;;;;;;;;;5094806;28;20455;-71
2021/09/18 07:49:29;;;;;;;6.13;3.70;;;;;;;;;;5092304;28;20530;-71
2021/09/18 07:52:03;;;;;;;5.47;3.87;;;;;;;;;;5085310;28;20464;-72
2021/09/18 07:54:34;;;;;;;6.80;3.40;;;;;;;;;;5089296;28;20464;-74
2021/09/18 07:57:05;;;;;;;3.40;3.10;;;;;;;;;;5098379;28;20579;-72
2021/09/18 07:59:35;;;;;;;4.30;3.50;;;;;;;;;;5098879;28;20479;-72
2021/09/18 08:02:09;;;;;;;6.60;2.50;;;;;;;;;;5099845;28;20547;-73
2021/09/18 08:04:38;;;;;;;3.00;2.37;;;;;;;;;;5097950;28;20447;-73
2021/09/18 08:07:30;;;;;;;4.00;2.60;;;;;;;;;;5099633;28;20562;-72
2021/09/18 08:09:58;;;;;;;5.10;2.70;;;;;;;;;;5099735;28;20810;-72
2021/09/18 08:12:47;;;;;;;2.90;2.40;;;;;;;;;;5093320;28;20467;-73
2021/09/18 08:15:23;;;;;;;8.80;1.87;;;;;;;;;;5098022;28;20456;-72
2021/09/18 08:18:06;;;;;;;3.63;2.57;;;;;;;;;;5097224;28;20955;-72
2021/09/18 08:20:52;;;;;;;3.30;2.03;;;;;;;;;;5097382;28;20483;-72
2021/09/18 08:23:26;;;;;;;3.97;2.30;;;;;;;;;;5075139;28;20460;-72
2021/09/18 08:25:58;;;;;;;3.87;2.87;;;;;;;;;;5097985;28;20459;-72
2021/09/18 08:28:27;;;;;;;4.03;1.97;;;;;;;;;;5099444;28;20538;-72
2021/09/18 08:31:02;;;;;;;5.17;2.70;;;;;;;;;;5080781;28;20477;-72
2021/09/18 08:33:42;;;;;;;2.63;1.70;;;;;;;;;;5078435;28;20456;-73
2021/09/18 08:36:19;;;;;;;3.33;2.07;;;;;;;;;;5085843;28;20815;-72
2021/09/18 08:38:47;;;;;;;6.33;2.60;;;;;;;;;;5098806;28;20454;-72
2021/09/18 08:41:16;;;;;;;3.63;1.77;;;;;;;;;;5098924;28;20459;-72
2021/09/18 08:43:44;;;;;;;2.30;1.53;;;;;;;;;;5103163;28;20538;-70
2021/09/18 08:46:19;;;;;;;1.50;0.90;;;;;;;;;;5113865;27;20471;-71
2021/09/18 08:48:52;;;;;;;3.00;1.00;;;;;;;;;;5098502;28;20463;-71
2021/09/18 08:51:44;;;;;;;2.30;1.00;;;;;;;;;;5086615;27;20761;-72
2021/09/18 08:54:20;;;;;;;2.77;1.23;;;;;;;;;;5106743;27;20742;-72
2021/09/18 08:56:51;;;;;;;3.63;1.10;;;;;;;;;;5084303;28;20471;-71
2021/09/18 08:59:19;;;;;;;3.37;1.57;;;;;;;;;;5084289;28;20559;-72
2021/09/18 09:02:13;;;;;;;4.60;3.57;;;;;;;;;;5097113;28;20515;-72
2021/09/18 09:04:49;;;;;;;2.63;0.90;;;;;;;;;;5094395;28;21067;-73
2021/09/18 09:07:48;;;;;;;3.53;0.83;;;;;;;;;;5095980;28;20520;-72
2021/09/18 09:10:46;;;;;;;;;;;;;;;;;;;;;
2021/09/18 09:13:26;;;;;;;2.17;1.13;;;;;;;;;;5115597;27;20458;-73
2021/09/18 09:16:12;;;;;;;4.23;1.00;;;;;;;;;;5116780;27;20851;-72
2021/09/18 09:18:45;;;;;;;2.70;0.80;;;;;;;;;;5107364;28;20936;-73
2021/09/18 09:21:29;;;;;;;2.80;1.10;;;;;;;;;;5104918;27;20898;-72
2021/09/18 09:24:17;;;;;;;1.73;0.90;;;;;;;;;;5096441;28;20468;-73
2021/09/18 09:27:14;;;;;;;4.73;1.00;;;;;;;;;;5097839;28;20926;-72
2021/09/18 09:30:00;;;;;;;1.77;0.90;;;;;;;;;;5096165;28;20689;-73
2021/09/18 09:36:02;;;;;;;1.97;0.90;;;;;;;;;;5094391;28;20483;-72
2021/09/18 09:38:56;;;;;;;7.53;3.90;;;;;;;;;;5093952;28;20610;-71
2021/09/18 09:41:38;;;;;;;1.50;0.63;;;;;;;;;;5096231;28;20542;-71
2021/09/18 09:44:23;;;;;;;1.67;1.00;;;;;;;;;;5105646;27;20455;-71
2021/09/18 09:47:09;;;;;;;2.87;0.80;;;;;;;;;;5095432;28;20482;-70
2021/09/18 09:49:45;;;;;;;1.50;0.60;;;;;;;;;;5089580;28;20456;-71
2021/09/18 09:52:41;;;;;;;1.27;0.60;;;;;;;;;;5096547;27;20458;-71
2021/09/18 09:55:18;;;;;;;1.50;0.77;;;;;;;;;;5095120;28;20468;-71
2021/09/18 09:57:46;;;;;;;4.80;0.83;;;;;;;;;;5086401;28;20465;-72
2021/09/18 10:00:18;;;;;;;2.10;1.13;;;;;;;;;;5087415;28;20480;-72
2021/09/18 10:02:54;;;;;;;6.60;1.73;;;;;;;;;;5088073;28;20486;-72
2021/09/18 10:05:23;;;;;;;2.93;1.00;;;;;;;;;;5094919;28;20459;-71
2021/09/18 10:07:55;;;;;;;1.83;1.00;;;;;;;;;;5094616;28;20470;-70
2021/09/18 10:10:32;;;;;;;2.30;1.17;;;;;;;;;;5084454;28;20480;-72
2021/09/18 10:13:18;;;;;;;3.27;1.10;;;;;;;;;;5095575;28;20494;-71
2021/09/18 10:15:55;;;;;;;2.90;1.20;;;;;;;;;;5095244;28;20455;-71
2021/09/18 10:18:31;;;;;;;5.43;1.83;;;;;;;;;;5085807;28;20945;-72
2021/09/18 10:24:02;;;;;;;3.40;1.53;;;;;;;;;;5083685;28;20442;-73
2021/09/18 10:26:42;;;;;;;3.40;1.43;;;;;;;;;;5094442;28;20522;-72
2021/09/18 10:38:24;;;;;;;2.70;1.10;;;;;;;;;;5077086;28;20500;-72
2021/09/18 10:41:09;;;;;;;2.47;1.40;;;;;;;;;;5095879;28;20506;-72
2021/09/18 10:43:48;;;;;;;2.13;0.70;;;;;;;;;;5095847;28;20451;-71
2021/09/18 10:46:40;;;;;;;2.43;1.00;;;;;;;;;;5091477;28;20467;-73
2021/09/18 10:49:13;;;;;;;2.77;1.20;;;;;;;;;;5084174;28;20454;-72
2021/09/18 10:52:02;;;;;;;3.10;1.37;;;;;;;;;;5093754;28;20444;-71
2021/09/18 10:54:34;;;;;;;3.10;1.43;;;;;;;;;;5093666;28;20499;-72
2021/09/18 10:57:16;;;;;;;2.00;1.00;;;;;;;;;;5088636;28;20460;-72
2021/09/18 10:59:50;;;;;;;2.30;1.40;;;;;;;;;;5095503;28;20751;-71
2021/09/18 11:08:47;;;;;;;2.70;1.50;;;;;;;;;;5094406;28;20462;-71
2021/09/18 11:14:42;;;;;;;2.87;1.23;;;;;;;;;;5095583;28;20461;-72
2021/09/18 11:17:33;;;;;;;1.90;0.87;;;;;;;;;;5095381;28;20447;-72
2021/09/18 11:30:10;;;;;;;;;;;;;;;;;;;;;
2021/09/18 11:32:52;;;;;;;1.90;1.10;;;;;;;;;;5091986;28;20476;-71
2021/09/18 11:35:29;;;;;;;1.50;0.77;;;;;;;;;;5098410;28;20447;-70
2021/09/18 11:38:35;;;;;;;1.80;0.90;;;;;;;;;;5091298;28;20447;-71
2021/09/18 11:41:20;;;;;;;1.50;0.50;;;;;;;;;;5083391;28;20497;-71
2021/09/18 11:44:03;;;;;;;4.00;1.17;;;;;;;;;;5095455;28;20495;-72
2021/09/18 11:46:37;;;;;;;2.03;1.20;;;;;;;;;;5094832;28;20468;-71
2021/09/18 11:49:12;;;;;;;1.60;0.90;;;;;;;;;;5094393;28;20459;-71
2021/09/18 11:51:54;;;;;;;2.63;1.23;;;;;;;;;;5098199;28;20480;-71
2021/09/18 11:57:30;;;;;;;1.70;0.70;;;;;;;;;;5093341;28;20550;-72
2021/09/18 12:00:13;;;;;;;2.03;0.77;;;;;;;;;;5096307;28;20493;-72
2021/09/18 12:05:29;;;;;;;2.20;1.13;;;;;;;;;;5095933;28;20464;-71
2021/09/18 12:08:03;;;;;;;1.50;0.93;;;;;;;;;;5079362;28;20458;-72
2021/09/18 12:10:31;;;;;;;3.40;1.20;;;;;;;;;;5081194;28;20493;-71
2021/09/18 12:13:09;;;;;;;1.50;0.90;;;;;;;;;;5096689;28;21046;-71
2021/09/18 12:15:45;;;;;;;2.00;1.33;;;;;;;;;;5091075;28;20495;-70
2021/09/18 12:18:25;;;;;;;3.70;2.67;;;;;;;;;;5093022;28;20521;-71
2021/09/18 12:20:55;;;;;;;2.43;1.10;;;;;;;;;;5090726;28;20493;-71
2021/09/18 12:26:06;;;;;;;3.53;1.07;;;;;;;;;;5082364;28;20891;-71
2021/09/18 12:28:43;;;;;;;3.67;1.40;;;;;;;;;;5095666;28;20761;-71
2021/09/18 12:31:40;;;;;;;4.13;1.80;;;;;;;;;;5102037;28;20454;-71
2021/09/18 12:34:13;;;;;;;1.97;1.30;;;;;;;;;;5074027;28;20459;-73
2021/09/18 12:36:46;;;;;;;2.27;1.30;;;;;;;;;;5088989;28;20458;-72
2021/09/18 12:39:26;;;;;;;2.27;1.23;;;;;;;;;;5094913;28;20543;-71
2021/09/18 12:42:06;;;;;;;2.03;1.00;;;;;;;;;;5082385;28;20483;-71
2021/09/18 12:44:44;;;;;;;1.90;1.10;;;;;;;;;;5079769;28;20495;-70
2021/09/18 12:47:22;;;;;;;3.93;1.73;;;;;;;;;;5081325;28;20484;-71
2021/09/18 12:49:54;;;;;;;3.33;1.43;;;;;;;;;;5076236;28;20544;-72
2021/09/18 12:53:03;;;;;;;2.13;1.20;;;;;;;;;;5078843;28;20961;-71
2021/09/18 13:04:57;;;;;;;5.03;1.93;;;;;;;;;;5090448;28;20470;-72
2021/09/18 13:10:36;;;;;;;3.27;1.83;;;;;;;;;;5075112;27;20873;-71
2021/09/18 13:13:29;;;;;;;2.77;1.13;;;;;;;;;;5090234;28;20924;-74
2021/09/18 13:16:11;;;;;;;4.87;2.17;;;;;;;;;;5090165;28;20452;-73
2021/09/18 13:18:46;;;;;;;2.03;1.23;;;;;;;;;;5095825;28;20543;-71
2021/09/18 13:21:19;;;;;;;3.63;1.57;;;;;;;;;;5096734;28;20477;-72
2021/09/18 13:23:47;;;;;;;2.70;1.30;;;;;;;;;;5093182;28;20496;-72
2021/09/18 13:26:16;;;;;;;6.33;4.13;;;;;;;;;;5092520;28;20457;-72
2021/09/18 13:28:48;;;;;;;3.40;1.30;;;;;;;;;;5096846;28;20478;-71
2021/09/18 13:31:19;;;;;;;2.43;1.73;;;;;;;;;;5087983;28;20798;-71
2021/09/18 13:34:13;;;;;;;2.73;1.33;;;;;;;;;;5089039;28;20479;-71
2021/09/18 13:36:58;;;;;;;;;;;;;;;;;;;;;
2021/09/18 13:39:52;;;;;;;2.87;1.53;;;;;;;;;;5089073;28;20447;-72
2021/09/18 13:42:25;;;;;;;5.60;2.13;;;;;;;;;;5074538;28;20486;-72
2021/09/18 13:51:15;;;;;;;10.50;7.37;;;;;;;;;;5054288;28;20455;-72
2021/09/18 13:54:01;;;;;;;2.90;1.70;;;;;;;;;;5076618;28;20493;-72
2021/09/18 13:56:42;;;;;;;4.93;1.93;;;;;;;;;;5076437;28;20479;-72
2021/09/18 14:02:00;;;;;;;2.53;1.37;;;;;;;;;;5079308;28;20580;-71
2021/09/18 14:04:29;;;;;;;3.77;1.50;;;;;;;;;;5093741;28;20459;-70
2021/09/18 14:09:55;;;;;;;2.90;1.73;;;;;;;;;;5090929;28;20443;-70
2021/09/18 14:12:38;;;;;;;3.70;2.03;;;;;;;;;;5093161;28;20954;-72
2021/09/18 14:15:14;;;;;;;4.30;1.70;;;;;;;;;;5094373;28;20459;-71
2021/09/18 14:17:42;;;;;;;3.97;2.10;;;;;;;;;;5095683;28;20469;-70
2021/09/18 14:20:17;;;;;;;3.30;1.57;;;;;;;;;;5095772;28;20501;-70
2021/09/18 14:22:46;;;;;;;3.53;2.70;;;;;;;;;;5095492;28;20503;-72
2021/09/18 14:25:16;;;;;;;2.67;1.63;;;;;;;;;;5090291;28;20459;-72
2021/09/18 14:27:51;;;;;;;4.03;1.60;;;;;;;;;;5094559;28;20552;-70
2021/09/18 14:30:29;;;;;;;4.00;2.27;;;;;;;;;;5093822;28;20466;-72
2021/09/18 14:32:59;;;;;;;5.83;3.20;;;;;;;;;;5094858;28;20463;-71
2021/09/18 14:35:27;;;;;;;5.13;1.93;;;;;;;;;;5096229;28;20460;-71
2021/09/18 14:38:13;;;;;;;12.13;7.77;;;;;;;;;;5078241;28;20474;-72
2021/09/18 14:40:46;;;;;;;7.30;1.87;;;;;;;;;;5076035;28;20488;-71
2021/09/18 14:43:15;;;;;;;2.67;1.67;;;;;;;;;;5087662;28;20550;-72
2021/09/18 14:45:45;;;;;;;3.87;1.17;;;;;;;;;;5087591;28;20457;-71
2021/09/18 14:48:20;;;;;;;3.47;1.97;;;;;;;;;;5084028;28;20836;-72
2021/09/18 14:50:52;;;;;;;3.30;1.73;;;;;;;;;;5093715;28;20476;-72
2021/09/18 14:53:23;;;;;;;4.23;1.83;;;;;;;;;;5092605;28;21175;-71
2021/09/18 14:55:52;;;;;;;20.87;15.23;;;;;;;;;;5092381;28;20516;-71
2021/09/18 14:58:24;;;;;;;3.47;1.30;;;;;;;;;;5103565;28;20486;-71
2021/09/18 15:00:54;;;;;;;2.70;1.60;;;;;;;;;;5116976;27;20570;-71
2021/09/18 15:03:23;;;;;;;2.00;1.23;;;;;;;;;;5113633;28;20474;-72
2021/09/18 15:05:52;;;;;;;2.40;1.37;;;;;;;;;;5113964;28;20478;-71
2021/09/18 15:08:26;;;;;;;1.80;1.10;;;;;;;;;;5113857;28;20519;-71
2021/09/18 15:10:55;;;;;;;5.00;1.50;;;;;;;;;;5103834;28;20435;-71
2021/09/18 15:13:25;;;;;;;4.03;1.80;;;;;;;;;;5103232;28;20466;-71
2021/09/18 15:15:54;;;;;;;2.63;1.23;;;;;;;;;;5113923;28;20547;-72
2021/09/18 15:18:24;;;;;;;3.07;1.23;;;;;;;;;;5113699;28;20941;-72
2021/09/18 15:20:52;;;;;;;3.83;1.57;;;;;;;;;;5113266;28;20475;-70
2021/09/18 15:23:20;;;;;;;2.67;1.53;;;;;;;;;;5112802;28;20469;-70
2021/09/18 15:25:50;;;;;;;2.90;1.70;;;;;;;;;;5111195;28;20456;-70
2021/09/18 15:28:23;;;;;;;3.73;1.33;;;;;;;;;;5111931;28;20451;-71
2021/09/18 15:30:56;;;;;;;3.63;1.77;;;;;;;;;;5113842;28;20870;-71
2021/09/18 15:33:25;;;;;;;4.30;1.50;;;;;;;;;;5112351;28;20938;-71
2021/09/18 15:36:00;;;;;;;2.27;1.43;;;;;;;;;;5115393;28;20446;-70
2021/09/18 15:38:32;;;;;;;3.00;1.50;;;;;;;;;;5114258;28;20464;-71
2021/09/18 15:41:04;;;;;;;4.10;2.10;;;;;;;;;;5114139;28;20766;-71
2021/09/18 15:43:36;;;;;;;2.97;1.83;;;;;;;;;;5111924;28;20458;-71
2021/09/18 15:46:09;;;;;;;5.23;2.27;;;;;;;;;;5107101;28;20862;-72
2021/09/18 15:48:45;;;;;;;4.47;2.00;;;;;;;;;;5113049;28;20454;-71
2021/09/18 15:51:14;;;;;;;2.83;1.87;;;;;;;;;;5113479;28;20999;-71
2021/09/18 15:53:42;;;;;;;5.53;3.10;;;;;;;;;;5113533;28;20454;-69
2021/09/18 15:56:23;;;;;;;3.57;2.03;;;;;;;;;;5112450;28;20447;-71
2021/09/18 15:58:51;;;;;;;3.37;1.90;;;;;;;;;;5111409;28;20888;-70
2021/09/18 16:01:20;;;;;;;4.53;1.73;;;;;;;;;;5112086;28;20482;-70
2021/09/18 16:03:55;;;;;;;4.10;1.80;;;;;;;;;;5113918;28;20447;-71
2021/09/18 16:06:23;;;;;;;5.00;2.43;;;;;;;;;;5115911;28;20438;-71
2021/09/18 16:08:52;;;;;;;2.20;1.63;;;;;;;;;;5118012;28;20535;-70
2021/09/18 16:11:21;;;;;;;3.17;2.07;;;;;;;;;;5111744;28;20508;-71
2021/09/18 16:13:58;;;;;;;19.33;12.70;;;;;;;;;;5116116;28;20450;-71
2021/09/18 16:16:29;;;;;;;4.80;2.43;;;;;;;;;;5104466;28;20447;-71
2021/09/18 16:19:00;;;;;;;3.03;1.97;;;;;;;;;;5117894;28;20545;-71
2021/09/18 16:21:38;;;;;;;;;;;;;;;;;;;;;
2021/09/18 16:24:10;;;;;;;3.43;2.10;;;;;;;;;;5107566;28;20882;-70
2021/09/18 16:26:42;;;;;;;3.83;1.93;;;;;;;;;;5108283;28;20448;-72
2021/09/18 16:29:18;;;;;;;4.20;1.87;;;;;;;;;;5102464;28;20451;-71
2021/09/18 16:31:52;;;;;;;2.43;1.60;;;;;;;;;;5108308;28;20462;-70